createdAt,value
2023-05-12T00:01:15.165Z,14.87
2023-05-12T00:04:03.155Z,15.00
2023-05-12T00:06:49.957Z,14.88
2023-05-12T00:09:37.070Z,14.74
2023-05-12T00:12:23.549Z,14.74
2023-05-12T00:15:11.291Z,14.56
2023-05-12T00:17:58.605Z,14.59
2023-05-12T00:20:46.489Z,14.57
2023-05-12T00:23:33.185Z,14.47
2023-05-12T00:26:21.258Z,14.45
2023-05-12T00:29:08.349Z,14.27
2023-05-12T00:31:57.835Z,14.07
2023-05-12T00:34:44.499Z,14.09
2023-05-12T00:37:35.132Z,14.05
2023-05-12T00:40:22.024Z,13.99
2023-05-12T00:43:08.888Z,14.11
2023-05-12T00:45:55.983Z,14.05
2023-05-12T00:48:42.807Z,13.96
2023-05-12T00:51:29.685Z,13.86
2023-05-12T00:54:18.383Z,13.93
2023-05-12T00:57:05.758Z,13.90
2023-05-12T00:59:52.960Z,13.99
2023-05-12T01:02:40.330Z,13.96
2023-05-12T01:05:34.392Z,13.80
2023-05-12T01:08:21.656Z,13.83
2023-05-12T01:11:09.809Z,13.67
2023-05-12T01:13:57.076Z,13.60
2023-05-12T01:16:51.723Z,13.50
2023-05-12T01:19:43.164Z,13.44
2023-05-12T01:22:33.889Z,13.50
2023-05-12T01:25:24.898Z,13.63
2023-05-12T01:28:15.273Z,13.65
2023-05-12T01:31:02.479Z,13.57
2023-05-12T01:33:49.301Z,13.40
2023-05-12T01:36:36.235Z,13.27
2023-05-12T01:39:23.129Z,13.17
2023-05-12T01:42:09.957Z,13.05
2023-05-12T01:44:58.630Z,13.03
2023-05-12T01:47:47.103Z,13.01
2023-05-12T01:50:34.121Z,12.95
2023-05-12T01:53:21.566Z,12.85
2023-05-12T01:56:08.571Z,12.80
2023-05-12T01:58:55.963Z,12.79
2023-05-12T02:01:44.217Z,12.74
2023-05-12T02:04:34.712Z,12.65
2023-05-12T02:07:21.740Z,12.52
2023-05-12T02:10:09.744Z,12.46
2023-05-12T02:12:56.252Z,12.37
2023-05-12T02:15:43.511Z,12.22
2023-05-12T02:18:31.897Z,12.25
2023-05-12T02:21:18.887Z,12.24
2023-05-12T02:24:16.983Z,12.14
2023-05-12T02:27:06.509Z,12.14
2023-05-12T02:29:53.181Z,12.07
2023-05-12T02:32:40.236Z,12.03
2023-05-12T02:35:31.755Z,11.99
2023-05-12T02:38:19.207Z,12.00
2023-05-12T02:41:09.112Z,12.01
2023-05-12T02:44:15.022Z,11.92
2023-05-12T02:47:05.512Z,11.82
2023-05-12T02:49:56.701Z,11.89
2023-05-12T02:52:54.900Z,11.85
2023-05-12T02:55:42.105Z,11.86
2023-05-12T02:58:29.086Z,11.74
2023-05-12T03:01:16.228Z,11.65
2023-05-12T03:04:03.000Z,11.58
2023-05-12T03:06:49.868Z,11.53
2023-05-12T03:09:40.794Z,11.51
2023-05-12T03:12:29.356Z,11.52
2023-05-12T03:15:16.683Z,11.40
2023-05-12T03:18:03.658Z,11.38
2023-05-12T03:20:51.165Z,11.41
2023-05-12T03:23:37.949Z,11.34
2023-05-12T03:26:26.237Z,11.41
2023-05-12T03:29:12.941Z,11.41
2023-05-12T03:31:59.856Z,11.31
2023-05-12T03:34:46.667Z,11.41
2023-05-12T03:37:33.440Z,11.41
2023-05-12T03:40:20.618Z,11.41
2023-05-12T03:43:11.694Z,11.37
2023-05-12T03:46:00.150Z,11.18
2023-05-12T03:48:47.248Z,11.63
2023-05-12T03:51:33.783Z,11.57
2023-05-12T03:54:25.178Z,11.74
2023-05-12T03:57:13.605Z,11.74
2023-05-12T04:00:02.269Z,11.92
2023-05-12T04:03:02.205Z,12.17
2023-05-12T04:05:50.215Z,12.46
2023-05-12T04:08:36.606Z,12.51
2023-05-12T04:11:23.692Z,12.50
2023-05-12T04:14:10.572Z,12.56
2023-05-12T04:16:58.861Z,12.72
2023-05-12T04:19:47.612Z,12.82
2023-05-12T04:22:34.524Z,12.80
2023-05-12T04:25:23.414Z,12.86
2023-05-12T04:28:12.077Z,13.05
2023-05-12T04:31:05.541Z,13.14
2023-05-12T04:33:56.804Z,13.17
2023-05-12T04:36:45.112Z,13.29
2023-05-12T04:39:32.965Z,13.40
2023-05-12T04:42:22.733Z,13.38
2023-05-12T04:45:19.439Z,13.64
2023-05-12T04:48:08.983Z,13.69
2023-05-12T04:50:59.923Z,13.83
2023-05-12T04:53:46.529Z,13.83
2023-05-12T04:56:39.318Z,14.07
2023-05-12T04:59:29.921Z,14.88
2023-05-12T05:02:21.772Z,16.09
2023-05-12T05:05:10.094Z,17.15
2023-05-12T05:08:05.302Z,17.97
2023-05-12T05:10:56.308Z,18.82
2023-05-12T05:13:45.494Z,19.43
2023-05-12T05:16:36.768Z,19.59
2023-05-12T05:19:40.845Z,19.99
2023-05-12T05:22:34.786Z,19.85
2023-05-12T05:25:27.287Z,20.05
2023-05-12T05:28:17.343Z,20.23
2023-05-12T05:31:06.285Z,19.94
2023-05-12T05:33:55.131Z,20.19
2023-05-12T05:36:48.133Z,19.91
2023-05-12T05:39:38.797Z,20.22
2023-05-12T05:42:29.072Z,20.18
2023-05-12T05:45:16.059Z,20.44
2023-05-12T05:48:02.581Z,20.77
2023-05-12T05:50:50.166Z,20.91
2023-05-12T05:53:37.428Z,20.79
2023-05-12T05:56:24.298Z,21.00
2023-05-12T05:59:22.454Z,20.85
2023-05-12T06:02:11.094Z,20.88
2023-05-12T06:05:00.226Z,20.47
2023-05-12T06:07:49.604Z,20.31
2023-05-12T06:10:36.395Z,20.38
2023-05-12T06:13:23.276Z,20.09
2023-05-12T06:16:11.481Z,19.80
2023-05-12T06:18:59.248Z,19.72
2023-05-12T06:21:46.067Z,20.14
2023-05-12T06:24:32.909Z,20.32
2023-05-12T06:27:19.832Z,19.83
2023-05-12T06:30:10.569Z,19.82
2023-05-12T06:32:59.606Z,19.76
2023-05-12T06:35:57.114Z,19.84
2023-05-12T06:38:46.070Z,19.86
2023-05-12T06:41:33.752Z,20.07
2023-05-12T06:44:20.622Z,19.73
2023-05-12T06:47:11.673Z,19.47
2023-05-12T06:50:05.293Z,19.50
2023-05-12T06:52:52.402Z,19.47
2023-05-12T06:55:41.837Z,19.37
2023-05-12T06:58:28.347Z,19.41
2023-05-12T07:01:15.120Z,19.46
2023-05-12T07:04:02.008Z,19.52
2023-05-12T07:06:52.646Z,19.60
2023-05-12T07:09:40.670Z,19.56
2023-05-12T07:12:29.638Z,19.54
2023-05-12T07:15:18.896Z,19.61
2023-05-12T07:18:08.927Z,19.60
2023-05-12T07:20:55.893Z,19.43
2023-05-12T07:23:44.070Z,19.73
2023-05-12T07:26:30.799Z,19.97
2023-05-12T07:29:17.805Z,19.79
2023-05-12T07:32:04.465Z,19.79
2023-05-12T07:34:51.122Z,19.95
2023-05-12T07:37:38.001Z,20.00
2023-05-12T07:40:26.325Z,20.14
2023-05-12T07:43:13.176Z,20.25
2023-05-12T07:46:03.640Z,20.32
2023-05-12T07:48:53.447Z,20.63
2023-05-12T07:51:40.378Z,20.48
2023-05-12T07:54:27.366Z,20.62
2023-05-12T07:57:15.446Z,20.79
2023-05-12T08:00:04.949Z,20.61
2023-05-12T08:02:59.377Z,20.89
2023-05-12T08:05:46.496Z,20.72
2023-05-12T08:08:33.462Z,20.97
2023-05-12T08:11:20.312Z,21.12
2023-05-12T08:14:08.331Z,21.24
2023-05-12T08:16:55.097Z,21.46
2023-05-12T08:19:42.080Z,21.43
2023-05-12T08:22:31.073Z,21.64
2023-05-12T08:25:18.131Z,21.72
2023-05-12T08:28:05.030Z,21.55
2023-05-12T08:30:53.313Z,21.89
2023-05-12T08:33:39.969Z,22.34
2023-05-12T08:36:27.447Z,22.86
2023-05-12T08:39:14.399Z,23.05
2023-05-12T08:42:13.581Z,23.10
2023-05-12T08:45:01.234Z,23.71
2023-05-12T08:47:52.436Z,23.87
2023-05-12T08:50:40.902Z,24.01
2023-05-12T08:53:34.110Z,23.79
2023-05-12T08:59:13.988Z,24.07
2023-05-12T09:02:04.582Z,24.52
2023-05-12T09:04:55.016Z,24.50
2023-05-12T09:07:44.883Z,24.01
2023-05-12T09:10:35.482Z,24.38
2023-05-12T09:13:29.065Z,24.28
2023-05-12T09:16:21.122Z,23.94
2023-05-12T09:19:07.873Z,24.30
2023-05-12T09:21:59.505Z,24.65
2023-05-12T09:24:48.398Z,24.23
2023-05-12T09:27:37.080Z,24.61
2023-05-12T09:30:38.497Z,24.77
2023-05-12T09:33:27.460Z,25.27
2023-05-12T09:36:19.708Z,25.68
2023-05-12T09:39:12.142Z,25.46
2023-05-12T09:42:01.236Z,24.19
2023-05-12T09:44:50.094Z,23.95
2023-05-12T09:47:40.308Z,24.59
2023-05-12T09:50:30.620Z,24.54
2023-05-12T09:53:23.087Z,24.87
2023-05-12T09:56:19.862Z,24.07
2023-05-12T09:59:06.885Z,24.13
2023-05-12T10:02:05.882Z,24.63
2023-05-12T10:04:59.902Z,24.68
2023-05-12T10:07:55.883Z,24.84
2023-05-12T10:10:45.534Z,24.86
2023-05-12T10:13:40.681Z,24.89
2023-05-12T10:16:30.630Z,25.06
2023-05-12T10:19:21.186Z,24.80
2023-05-12T10:22:16.010Z,24.70
2023-05-12T10:25:06.015Z,24.35
2023-05-12T10:27:54.247Z,24.68
2023-05-12T10:30:47.215Z,24.78
2023-05-12T10:33:34.361Z,24.56
2023-05-12T10:36:23.843Z,24.56
2023-05-12T10:39:25.007Z,24.35
2023-05-12T10:42:14.048Z,24.11
2023-05-12T10:45:08.288Z,24.35
2023-05-12T10:48:07.099Z,24.35
2023-05-12T10:50:56.523Z,24.11
2023-05-12T10:53:52.584Z,24.09
2023-05-12T10:56:50.078Z,24.17
2023-05-12T11:00:01.668Z,23.82
2023-05-12T11:03:42.368Z,23.59
2023-05-12T11:07:07.868Z,23.95
2023-05-12T11:13:34.453Z,24.00
2023-05-12T11:16:59.154Z,23.97
2023-05-12T11:19:58.378Z,23.91
2023-05-12T11:22:49.019Z,23.86
2023-05-12T11:25:49.545Z,24.03
2023-05-12T11:28:42.811Z,23.92
2023-05-12T11:31:35.217Z,23.88
2023-05-12T11:34:28.497Z,23.73
2023-05-12T11:37:22.695Z,23.95
2023-05-12T11:40:18.854Z,24.26
2023-05-12T11:43:18.925Z,24.12
2023-05-12T11:46:09.158Z,23.98
2023-05-12T11:48:57.359Z,24.03
2023-05-12T11:51:44.926Z,24.32
2023-05-12T11:54:33.219Z,24.22
2023-05-12T11:57:36.085Z,24.30
2023-05-12T12:00:29.581Z,24.37
2023-05-12T12:03:32.986Z,24.13
2023-05-12T12:06:23.046Z,24.47
2023-05-12T12:09:13.024Z,24.19
2023-05-12T12:12:04.083Z,23.93
2023-05-12T12:14:52.991Z,24.33
2023-05-12T12:17:40.506Z,24.42
2023-05-12T12:20:30.268Z,24.41
2023-05-12T12:26:22.686Z,24.58
2023-05-12T12:29:13.416Z,24.53
2023-05-12T12:32:02.428Z,24.52
2023-05-12T12:34:49.544Z,24.79
2023-05-12T12:37:40.462Z,24.82
2023-05-12T12:40:27.056Z,24.52
2023-05-12T12:43:14.131Z,24.54
2023-05-12T12:46:04.759Z,24.52
2023-05-12T12:48:53.599Z,24.36
2023-05-12T12:51:46.129Z,24.68
2023-05-12T12:54:37.097Z,24.86
2023-05-12T12:57:23.903Z,24.66
2023-05-12T13:00:12.078Z,24.49
2023-05-12T13:03:02.376Z,24.45
2023-05-12T13:05:51.208Z,24.44
2023-05-12T13:08:39.331Z,24.37
2023-05-12T13:11:28.974Z,24.47
2023-05-12T13:14:16.161Z,24.63
2023-05-12T13:17:02.937Z,24.51
2023-05-12T13:19:52.804Z,24.79
2023-05-12T13:22:42.025Z,24.79
2023-05-12T13:25:34.421Z,24.71
2023-05-12T13:28:28.588Z,24.97
2023-05-12T13:31:17.821Z,24.97
2023-05-12T13:34:05.534Z,24.81
2023-05-12T13:36:53.845Z,24.94
2023-05-12T13:39:42.900Z,24.72
2023-05-12T13:42:31.830Z,24.99
2023-05-12T13:45:21.666Z,24.66
2023-05-12T13:48:11.103Z,24.51
2023-05-12T13:51:01.243Z,24.54
2023-05-12T13:53:59.133Z,24.59
2023-05-12T13:56:45.875Z,24.80
2023-05-12T13:59:35.078Z,24.73
2023-05-12T14:02:23.981Z,24.75
2023-05-12T14:05:11.017Z,24.79
2023-05-12T14:07:59.581Z,24.53
2023-05-12T14:10:50.280Z,24.49
2023-05-12T14:13:37.458Z,24.49
2023-05-12T14:16:26.748Z,24.86
2023-05-12T14:19:14.405Z,25.00
2023-05-12T14:22:03.166Z,25.18
2023-05-12T14:24:54.887Z,24.90
2023-05-12T14:27:42.847Z,25.04
2023-05-12T14:30:32.084Z,24.87
2023-05-12T14:33:21.627Z,24.68
2023-05-12T14:36:11.383Z,24.70
2023-05-12T14:38:59.464Z,24.24
2023-05-12T14:41:48.636Z,24.31
2023-05-12T14:44:39.362Z,24.34
2023-05-12T14:47:26.307Z,24.62
2023-05-12T14:50:13.708Z,24.65
2023-05-12T14:53:01.410Z,24.55
2023-05-12T14:55:48.589Z,24.43
2023-05-12T14:58:35.158Z,24.46
2023-05-12T15:01:26.208Z,24.14
2023-05-12T15:04:15.733Z,24.31
2023-05-12T15:07:02.549Z,24.22
2023-05-12T15:09:52.187Z,24.47
2023-05-12T15:12:38.659Z,24.63
2023-05-12T15:15:25.520Z,24.67
2023-05-12T15:18:18.658Z,24.69
2023-05-12T15:21:08.849Z,24.63
2023-05-12T15:23:57.010Z,24.29
2023-05-12T15:26:46.017Z,24.43
2023-05-12T15:29:35.183Z,24.48
2023-05-12T15:32:22.957Z,24.54
2023-05-12T15:35:19.037Z,24.43
2023-05-12T15:38:10.996Z,24.24
2023-05-12T15:40:57.454Z,24.17
2023-05-12T15:43:44.644Z,24.23
2023-05-12T15:46:33.949Z,24.42
2023-05-12T15:49:23.335Z,24.40
2023-05-12T15:52:13.688Z,24.60
2023-05-12T15:55:05.450Z,24.59
2023-05-12T15:57:54.768Z,24.52
2023-05-12T16:00:45.947Z,24.49
2023-05-12T16:03:34.849Z,24.46
2023-05-12T16:06:24.540Z,24.21
2023-05-12T16:09:13.746Z,24.46
2023-05-12T16:12:03.776Z,24.38
2023-05-12T16:14:54.428Z,24.38
2023-05-12T16:17:41.980Z,24.44
2023-05-12T16:20:29.188Z,24.18
2023-05-12T16:23:16.557Z,24.05
2023-05-12T16:26:13.547Z,24.16
2023-05-12T16:29:02.636Z,24.15
2023-05-12T16:31:52.894Z,23.95
2023-05-12T16:37:32.316Z,23.91
2023-05-12T16:40:19.222Z,23.97
2023-05-12T16:43:09.503Z,23.78
2023-05-12T16:46:05.691Z,23.58
2023-05-12T16:48:54.952Z,23.70
2023-05-12T16:51:44.836Z,23.46
2023-05-12T16:54:32.955Z,23.33
2023-05-12T16:57:21.132Z,23.35
2023-05-12T17:00:15.446Z,23.23
2023-05-12T17:03:03.729Z,23.11
2023-05-12T17:05:52.968Z,23.10
2023-05-12T17:08:39.848Z,23.19
2023-05-12T17:11:27.504Z,23.16
2023-05-12T17:14:14.901Z,22.95
2023-05-12T17:17:08.715Z,22.87
2023-05-12T17:20:04.479Z,22.78
2023-05-12T17:23:05.595Z,22.67
2023-05-12T17:25:55.404Z,22.58
2023-05-12T17:28:45.557Z,22.48
2023-05-12T17:31:33.217Z,22.43
2023-05-12T17:34:24.505Z,22.41
2023-05-12T17:37:26.497Z,22.41
2023-05-12T17:40:38.093Z,22.30
2023-05-12T17:43:25.546Z,22.17
2023-05-12T17:46:12.406Z,22.14
2023-05-12T17:49:01.565Z,21.91
2023-05-12T17:51:53.214Z,21.74
2023-05-12T17:54:47.647Z,21.76
2023-05-12T17:58:14.090Z,21.63
2023-05-12T18:01:08.452Z,21.39
2023-05-12T18:04:07.747Z,21.26
2023-05-12T18:07:01.162Z,21.13
2023-05-12T18:09:51.410Z,20.86
2023-05-12T18:12:41.239Z,20.53
2023-05-12T18:15:30.250Z,20.43
2023-05-12T18:18:19.389Z,20.38
2023-05-12T18:21:06.725Z,20.26
2023-05-12T18:23:55.014Z,20.02
2023-05-12T18:26:43.350Z,19.92
2023-05-12T18:29:29.791Z,19.70
2023-05-12T18:32:18.959Z,19.72
2023-05-12T18:35:06.217Z,19.54
2023-05-12T18:37:55.625Z,19.56
2023-05-12T18:40:44.091Z,19.39
2023-05-12T18:43:33.066Z,19.12
2023-05-12T18:46:22.411Z,19.11
2023-05-12T18:49:14.627Z,19.04
2023-05-12T18:52:03.638Z,19.03
2023-05-12T18:54:50.485Z,18.82
2023-05-12T18:57:40.936Z,18.66
2023-05-12T19:00:32.143Z,18.43
2023-05-12T19:03:18.861Z,18.20
2023-05-12T19:06:05.818Z,18.05
2023-05-12T19:08:52.830Z,17.99
2023-05-12T19:11:39.511Z,17.82
2023-05-12T19:14:55.602Z,17.80
2023-05-12T19:17:42.306Z,17.67
2023-05-12T19:20:32.974Z,17.56
2023-05-12T19:23:22.052Z,17.57
2023-05-12T19:26:19.694Z,17.29
2023-05-12T19:29:20.037Z,17.24
2023-05-12T19:32:09.130Z,16.97
2023-05-12T19:35:00.424Z,16.77
2023-05-12T19:37:49.533Z,16.36
2023-05-12T19:40:36.635Z,16.73
2023-05-12T19:43:23.397Z,16.69
2023-05-12T19:46:13.179Z,16.54
2023-05-12T19:49:02.868Z,16.52
2023-05-12T19:51:53.925Z,16.46
2023-05-12T19:54:42.750Z,16.33
2023-05-12T19:57:29.550Z,16.20
2023-05-12T20:00:19.350Z,16.19
2023-05-12T20:03:06.765Z,16.08
2023-05-12T20:06:01.543Z,15.99
2023-05-12T20:08:48.088Z,15.97
2023-05-12T20:11:37.482Z,16.01
2023-05-12T20:14:24.331Z,15.94
2023-05-12T20:17:17.103Z,16.00
2023-05-12T20:20:05.541Z,15.97
2023-05-12T20:22:58.838Z,15.90
2023-05-12T20:25:48.668Z,15.80
2023-05-12T20:28:35.711Z,15.76
2023-05-12T20:31:24.772Z,15.63
2023-05-12T20:34:11.243Z,15.65
2023-05-12T20:36:58.231Z,15.56
2023-05-12T20:39:47.055Z,15.52
2023-05-12T20:42:36.807Z,15.33
2023-05-12T20:45:23.899Z,15.27
2023-05-12T20:48:15.095Z,15.25
2023-05-12T20:51:11.556Z,15.18
2023-05-12T20:54:00.492Z,15.16
2023-05-12T20:56:53.071Z,15.11
2023-05-12T20:59:42.065Z,15.02
2023-05-12T21:02:31.886Z,15.05
2023-05-12T21:05:21.980Z,14.98
2023-05-12T21:08:08.807Z,14.87
2023-05-12T21:10:55.824Z,14.92
2023-05-12T21:14:03.912Z,14.93
2023-05-12T21:16:50.479Z,14.81
2023-05-12T21:19:39.629Z,14.75
2023-05-12T21:22:30.373Z,14.74
2023-05-12T21:25:17.837Z,14.69
2023-05-12T21:28:05.070Z,14.69
2023-05-12T21:30:58.733Z,14.60
2023-05-12T21:33:48.261Z,14.49
2023-05-12T21:36:34.820Z,14.63
2023-05-12T21:39:22.123Z,14.53
2023-05-12T21:42:09.704Z,14.39
2023-05-12T21:44:59.058Z,14.22
2023-05-12T21:47:53.329Z,14.18
2023-05-12T21:50:40.382Z,14.24
2023-05-12T21:53:29.064Z,14.18
2023-05-12T21:56:17.266Z,14.14
2023-05-12T21:59:06.473Z,14.08
2023-05-12T22:01:53.183Z,14.07
2023-05-12T22:04:41.457Z,13.96
2023-05-12T22:07:32.372Z,13.93
2023-05-12T22:10:19.230Z,13.93
2023-05-12T22:13:08.470Z,13.89
2023-05-12T22:15:55.185Z,13.82
2023-05-12T22:18:45.916Z,13.86
2023-05-12T22:21:36.118Z,13.75
2023-05-12T22:24:24.705Z,13.78
2023-05-12T22:27:11.308Z,13.66
2023-05-12T22:29:58.189Z,13.57
2023-05-12T22:32:45.093Z,13.50
2023-05-12T22:35:32.863Z,13.56
2023-05-12T22:38:23.910Z,13.44
2023-05-12T22:41:11.401Z,13.39
2023-05-12T22:43:59.002Z,13.37
2023-05-12T22:46:48.051Z,13.31
2023-05-12T22:49:36.860Z,13.32
2023-05-12T22:52:25.600Z,13.39
2023-05-12T22:55:23.348Z,13.29
2023-05-12T22:58:14.570Z,13.31
2023-05-12T23:01:02.304Z,13.22
2023-05-12T23:03:56.890Z,13.34
2023-05-12T23:06:43.537Z,13.40
2023-05-12T23:09:37.842Z,13.22
2023-05-12T23:12:28.048Z,13.18
2023-05-12T23:15:17.292Z,13.26
2023-05-12T23:18:08.944Z,13.43
2023-05-12T23:20:58.278Z,13.38
2023-05-12T23:23:44.885Z,13.57
2023-05-12T23:26:32.948Z,13.28
2023-05-12T23:29:23.405Z,13.30
2023-05-12T23:32:10.945Z,13.37
2023-05-12T23:34:58.890Z,13.37
2023-05-12T23:37:47.796Z,13.42
2023-05-12T23:40:41.721Z,13.20
2023-05-12T23:43:28.272Z,13.22
2023-05-12T23:46:18.407Z,13.10
2023-05-12T23:49:15.514Z,12.91
2023-05-12T23:52:04.888Z,12.87
2023-05-12T23:54:51.525Z,12.93
2023-05-12T23:57:43.882Z,12.95
